Meteo Giornale » Osservazioni meteo Colombia » Bahia Solano-Jos
ore: 11:00 - Osservazioni Meteo Bahia Solano-Jos
Lat. 6° 10' N Lon. 77° 24' W Alt. 24 metri s.l.m.
29 °C
Sereno
Temp. 24 Ore
25 °C
29 °C
Sud/Sud-Est
7.4 Km/h
Dew point 27 °C
Umidità 89 %
Visibilità 22 Km
Il sole sorge alle ore 06:02
Il sole tramonta alle ore 18:16
| Data e Ora | Cielo e Fenomeni | T °C | DP °C | Um. % | Pres. hPa | Vis. km | Vento km/h | |
|---|---|---|---|---|---|---|---|---|
| Oggi h: 11:00 | Sereno | 29 | 27 | 89 | 1011 | 22 | S/SE 7.4 | |
| Oggi h: 10:00 | Sereno | 28 | 27 | 94 | 1012 | 22 | N 5.5 | |
| Oggi h: 09:00 | Sereno | 26 | 26 | 100 | 1012 | 21 | N 3.7 | |
| Oggi h: 08:00 | Sereno | 26 | 26 | 100 | 1012 | 21 | N 1.8 | |
| Oggi h: 07:00 | Sereno | 25 | 25 | 100 | 1011 | 21 | N 3.7 | |
| Oggi h: 06:00 | Sereno | 25 | 25 | 100 | 1011 | 21 | N 1.8 | |
| Oggi h: 05:00 | Sereno | 25 | 25 | 100 | 1011 | 21 | N 3.7 | |
| Oggi h: 04:00 | Sereno | 25 | 25 | 100 | 1010 | 21 | N 3.7 | |
| Oggi h: 03:00 | Sereno | 25 | 25 | 100 | 1011 | 21 | N 1.8 | |
| Oggi h: 01:00 | Sereno | 26 | 26 | 100 | 1011 | 21 | N 1.8 | |
| Oggi h: 00:00 | Sereno | 26 | 26 | 100 | 1012 | 21 | N 3.7 | |
| Ieri h: 23:00 | Sereno | 26 | 26 | 100 | 1012 | 20 | N 3.7 | |
| Ieri h: 22:00 | Sereno | 26 | 26 | 100 | 1012 | 20 | N 3.7 | |
| Ieri h: 21:00 | Sereno | 26 | 26 | 100 | 1011 | 20 | N 1.8 | |
| Ieri h: 20:00 | Sereno | 26 | 26 | 100 | 1010 | 20 | N 1.8 | |
| Ieri h: 19:00 | Sereno | 27 | 26 | 94 | 1010 | 20 | N 3.7 | |
| Ieri h: 18:00 | Sereno | 28 | 26 | 88 | 1009 | 12 | S/SE 9.3 | |
| Ieri h: 17:00 | Sereno | 29 | 27 | 89 | 1009 | 12 | N 5.5 | |
| Ieri h: 16:00 | Sereno | 29 | 27 | 89 | 1009 | 12 | S 9.3 | |
| Ieri h: 15:00 | Sereno | 28 | 27 | 94 | 1009 | 12 | N 3.7 | |
| Ieri h: 14:00 | Sereno | 28 | 26 | 88 | 1010 | 12 | S/SO 7.4 | |
| Ieri h: 13:00 | Sereno | 29 | 26 | 83 | 1011 | 12 | S 11.1 | |



